createdAt,value
2023-04-25T00:00:59.426Z,87708.00
2023-04-25T00:01:59.426Z,87708.00
2023-04-25T00:02:59.528Z,87706.00
2023-04-25T00:03:59.542Z,87706.00
2023-04-25T00:04:59.627Z,87708.00
2023-04-25T00:05:59.534Z,87710.00
2023-04-25T00:06:59.433Z,87708.00
2023-04-25T00:07:59.450Z,87710.00
2023-04-25T00:08:59.436Z,87716.00
2023-04-25T00:09:59.438Z,87710.00
2023-04-25T00:10:59.438Z,87710.00
2023-04-25T00:11:59.441Z,87706.00
2023-04-25T00:12:59.451Z,87706.00
2023-04-25T00:13:59.456Z,87702.00
2023-04-25T00:14:59.485Z,87702.00
2023-04-25T00:15:59.489Z,87702.00
2023-04-25T00:16:59.461Z,87700.00
2023-04-25T00:17:59.548Z,87700.00
2023-04-25T00:18:59.485Z,87696.00
2023-04-25T00:19:59.485Z,87696.00
2023-04-25T00:20:59.500Z,87694.00
2023-04-25T00:21:59.509Z,87694.00
2023-04-25T00:22:59.511Z,87692.00
2023-04-25T00:23:59.523Z,87694.00
2023-04-25T00:24:59.535Z,87694.00
2023-04-25T00:25:59.536Z,87688.00
2023-04-25T00:26:59.539Z,87694.00
2023-04-25T00:27:59.536Z,87694.00
2023-04-25T00:28:59.561Z,87694.00
2023-04-25T00:29:59.552Z,87692.00
2023-04-25T00:30:59.572Z,87692.00
2023-04-25T00:31:59.684Z,87692.00
2023-04-25T00:32:59.592Z,87686.00
2023-04-25T00:33:59.581Z,87686.00
2023-04-25T00:34:59.581Z,87686.00
2023-04-25T00:35:59.587Z,87686.00
2023-04-25T00:36:59.592Z,87686.00
2023-04-25T00:37:59.592Z,87688.00
2023-04-25T00:38:59.596Z,87686.00
2023-04-25T00:39:59.603Z,87688.00
2023-04-25T00:40:59.617Z,87686.00
2023-04-25T00:41:59.600Z,87686.00
2023-04-25T00:42:59.605Z,87684.00
2023-04-25T00:43:59.616Z,87684.00
2023-04-25T00:44:59.604Z,87682.00
2023-04-25T00:45:59.638Z,87684.00
2023-04-25T00:46:59.733Z,87682.00
2023-04-25T00:47:59.667Z,87686.00
2023-04-25T00:48:59.614Z,87686.00
2023-04-25T00:49:59.616Z,87688.00
2023-04-25T00:50:59.620Z,87688.00
2023-04-25T00:51:59.613Z,87682.00
2023-04-25T00:52:59.628Z,87682.00
2023-04-25T00:53:59.622Z,87680.00
2023-04-25T00:54:59.619Z,87680.00
2023-04-25T00:55:59.624Z,87678.00
2023-04-25T00:56:59.626Z,87678.00
2023-04-25T00:57:59.620Z,87676.00
2023-04-25T00:58:59.630Z,87674.00
2023-04-25T00:59:59.619Z,87674.00
2023-04-25T01:00:59.743Z,87672.00
2023-04-25T01:01:59.665Z,87670.00
2023-04-25T01:02:59.747Z,87668.00
2023-04-25T01:03:59.804Z,87668.00
2023-04-25T01:04:59.675Z,87668.00
2023-04-25T01:05:59.642Z,87666.00
2023-04-25T01:06:59.639Z,87666.00
2023-04-25T01:07:59.649Z,87668.00
2023-04-25T01:08:59.647Z,87670.00
2023-04-25T01:09:59.647Z,87672.00
2023-04-25T01:10:59.653Z,87670.00
2023-04-25T01:11:59.646Z,87668.00
2023-04-25T01:12:59.648Z,87666.00
2023-04-25T01:13:59.645Z,87666.00
2023-04-25T01:14:59.651Z,87666.00
2023-04-25T01:15:59.652Z,87662.00
2023-04-25T01:16:59.727Z,87660.00
2023-04-25T01:17:59.677Z,87656.00
2023-04-25T01:18:59.653Z,87656.00
2023-04-25T01:19:59.649Z,87658.00
2023-04-25T01:20:59.657Z,87658.00
2023-04-25T01:21:59.658Z,87658.00
2023-04-25T01:22:59.694Z,87660.00
2023-04-25T01:23:59.694Z,87658.00
2023-04-25T01:24:59.694Z,87656.00
2023-04-25T01:25:59.701Z,87655.00
2023-04-25T01:26:59.712Z,87656.00
2023-04-25T01:27:59.772Z,87656.00
2023-04-25T01:28:59.735Z,87658.00
2023-04-25T01:29:59.746Z,87660.00
2023-04-25T01:30:59.770Z,87656.00
2023-04-25T01:31:59.821Z,87658.00
2023-04-25T01:32:59.834Z,87656.00
2023-04-25T01:33:59.779Z,87658.00
2023-04-25T01:34:59.764Z,87656.00
2023-04-25T01:35:59.783Z,87656.00
2023-04-25T01:36:59.785Z,87655.00
2023-04-25T01:37:59.778Z,87651.00
2023-04-25T01:38:59.776Z,87651.00
2023-04-25T01:39:59.775Z,87645.00
2023-04-25T01:40:59.783Z,87643.00
2023-04-25T01:41:59.764Z,87637.00
2023-04-25T01:42:59.769Z,87635.00
2023-04-25T01:43:59.761Z,87635.00
2023-04-25T01:44:59.762Z,87639.00
2023-04-25T01:45:59.799Z,87639.00
2023-04-25T01:46:59.766Z,87641.00
2023-04-25T01:47:59.818Z,87639.00
2023-04-25T01:48:59.772Z,87641.00
2023-04-25T01:49:59.769Z,87645.00
2023-04-25T01:50:59.787Z,87647.00
2023-04-25T01:51:59.766Z,87645.00
2023-04-25T01:52:59.778Z,87651.00
2023-04-25T01:54:00.974Z,87653.00
2023-04-25T01:54:59.775Z,87651.00
2023-04-25T01:55:59.800Z,87653.00
2023-04-25T01:56:59.778Z,87653.00
2023-04-25T01:57:59.776Z,87651.00
2023-04-25T01:58:59.788Z,87651.00
2023-04-25T01:59:59.771Z,87651.00
2023-04-25T02:00:59.851Z,87651.00
2023-04-25T02:02:00.027Z,87653.00
2023-04-25T02:02:59.967Z,87651.00
2023-04-25T02:04:00.001Z,87651.00
2023-04-25T02:04:59.774Z,87649.00
2023-04-25T02:05:59.771Z,87649.00
2023-04-25T02:06:59.777Z,87651.00
2023-04-25T02:07:59.761Z,87651.00
2023-04-25T02:08:59.766Z,87653.00
2023-04-25T02:09:59.768Z,87653.00
2023-04-25T02:10:59.776Z,87655.00
2023-04-25T02:11:59.795Z,87655.00
2023-04-25T02:12:59.812Z,87655.00
2023-04-25T02:13:59.821Z,87655.00
2023-04-25T02:14:59.813Z,87656.00
2023-04-25T02:15:59.875Z,87658.00
2023-04-25T02:16:59.974Z,87658.00
2023-04-25T02:17:59.825Z,87658.00
2023-04-25T02:18:59.797Z,87660.00
2023-04-25T02:19:59.814Z,87658.00
2023-04-25T02:20:59.830Z,87658.00
2023-04-25T02:21:59.825Z,87656.00
2023-04-25T02:22:59.829Z,87653.00
2023-04-25T02:23:59.861Z,87653.00
2023-04-25T02:24:59.911Z,87647.00
2023-04-25T02:25:59.973Z,87647.00
2023-04-25T02:27:00.005Z,87647.00
2023-04-25T02:28:00.065Z,87643.00
2023-04-25T02:29:00.120Z,87641.00
2023-04-25T02:30:00.168Z,87643.00
2023-04-25T02:31:00.202Z,87641.00
2023-04-25T02:32:00.170Z,87639.00
2023-04-25T02:33:00.258Z,87635.00
2023-04-25T02:34:00.192Z,87637.00
2023-04-25T02:35:00.193Z,87635.00
2023-04-25T02:36:00.238Z,87637.00
2023-04-25T02:37:00.240Z,87639.00
2023-04-25T02:38:00.201Z,87637.00
2023-04-25T02:39:00.216Z,87641.00
2023-04-25T02:40:00.204Z,87639.00
2023-04-25T02:41:00.203Z,87639.00
2023-04-25T02:42:00.228Z,87637.00
2023-04-25T02:43:00.201Z,87637.00
2023-04-25T02:44:00.196Z,87637.00
2023-04-25T02:45:00.197Z,87635.00
2023-04-25T02:46:00.217Z,87639.00
2023-04-25T02:47:00.280Z,87639.00
2023-04-25T02:48:00.271Z,87639.00
2023-04-25T02:49:00.202Z,87639.00
2023-04-25T02:50:00.293Z,87639.00
2023-04-25T02:51:00.207Z,87639.00
2023-04-25T02:52:00.212Z,87641.00
2023-04-25T02:53:00.215Z,87641.00
2023-04-25T02:54:00.219Z,87641.00
2023-04-25T02:55:00.237Z,87643.00
2023-04-25T02:56:00.244Z,87641.00
2023-04-25T02:57:00.243Z,87643.00
2023-04-25T02:58:00.226Z,87645.00
2023-04-25T02:59:00.248Z,87645.00
2023-04-25T03:00:00.341Z,87645.00
2023-04-25T03:01:00.282Z,87643.00
2023-04-25T03:02:00.253Z,87645.00
2023-04-25T03:03:00.443Z,87643.00
2023-04-25T03:04:00.293Z,87641.00
2023-04-25T03:05:00.304Z,87641.00
2023-04-25T03:06:00.268Z,87637.00
2023-04-25T03:07:00.279Z,87637.00
2023-04-25T03:08:00.277Z,87637.00
2023-04-25T03:09:00.295Z,87635.00
2023-04-25T03:10:00.310Z,87633.00
2023-04-25T03:11:00.280Z,87633.00
2023-04-25T03:12:00.275Z,87635.00
2023-04-25T03:13:00.279Z,87635.00
2023-04-25T03:14:00.280Z,87635.00
2023-04-25T03:15:00.277Z,87637.00
2023-04-25T03:16:00.320Z,87637.00
2023-04-25T03:17:00.459Z,87637.00
2023-04-25T03:18:00.351Z,87639.00
2023-04-25T03:19:00.287Z,87639.00
2023-04-25T03:20:00.291Z,87639.00
2023-04-25T03:21:00.285Z,87643.00
2023-04-25T03:22:00.290Z,87643.00
2023-04-25T03:23:00.283Z,87645.00
2023-04-25T03:24:00.272Z,87643.00
2023-04-25T03:25:00.265Z,87643.00
2023-04-25T03:26:00.270Z,87643.00
2023-04-25T03:27:00.298Z,87643.00
2023-04-25T03:28:00.264Z,87645.00
2023-04-25T03:29:00.247Z,87645.00
2023-04-25T03:30:00.317Z,87643.00
2023-04-25T03:31:00.236Z,87645.00
2023-04-25T03:32:00.304Z,87643.00
2023-04-25T03:33:00.288Z,87643.00
2023-04-25T03:34:00.221Z,87641.00
2023-04-25T03:35:00.218Z,87641.00
2023-04-25T03:36:00.212Z,87639.00
2023-04-25T03:37:00.229Z,87637.00
2023-04-25T03:38:00.243Z,87633.00
2023-04-25T03:39:00.212Z,87635.00
2023-04-25T03:40:00.259Z,87633.00
2023-04-25T03:41:00.218Z,87631.00
2023-04-25T03:42:00.246Z,87631.00
2023-04-25T03:43:00.207Z,87629.00
2023-04-25T03:44:00.232Z,87633.00
2023-04-25T03:45:00.230Z,87627.00
2023-04-25T03:46:00.239Z,87631.00
2023-04-25T03:47:00.228Z,87631.00
2023-04-25T03:48:00.364Z,87629.00
2023-04-25T03:49:00.265Z,87629.00
2023-04-25T03:50:00.240Z,87627.00
2023-04-25T03:51:00.248Z,87629.00
2023-04-25T03:52:00.284Z,87631.00
2023-04-25T03:53:00.267Z,87631.00
2023-04-25T03:54:00.279Z,87631.00
2023-04-25T03:55:00.290Z,87629.00
2023-04-25T03:56:00.312Z,87629.00
2023-04-25T03:57:00.326Z,87629.00
2023-04-25T03:58:00.352Z,87625.00
2023-04-25T03:59:00.357Z,87623.00
2023-04-25T04:00:00.401Z,87623.00
2023-04-25T04:01:00.397Z,87623.00
2023-04-25T04:02:00.512Z,87623.00
2023-04-25T04:03:00.515Z,87625.00
2023-04-25T04:04:00.593Z,87623.00
2023-04-25T04:05:00.623Z,87621.00
2023-04-25T04:06:00.477Z,87623.00
2023-04-25T04:07:00.505Z,87625.00
2023-04-25T04:08:00.508Z,87625.00
2023-04-25T04:09:00.550Z,87625.00
2023-04-25T04:10:00.558Z,87625.00
2023-04-25T04:11:00.577Z,87627.00
2023-04-25T04:12:00.614Z,87625.00
2023-04-25T04:13:00.612Z,87629.00
2023-04-25T04:14:00.651Z,87625.00
2023-04-25T04:15:00.653Z,87629.00
2023-04-25T04:16:00.756Z,87627.00
2023-04-25T04:17:00.705Z,87629.00
2023-04-25T04:18:00.780Z,87627.00
2023-04-25T04:19:00.761Z,87629.00
2023-04-25T04:20:00.760Z,87629.00
2023-04-25T04:21:00.770Z,87629.00
2023-04-25T04:22:00.804Z,87631.00
2023-04-25T04:23:00.806Z,87629.00
2023-04-25T04:24:00.822Z,87631.00
2023-04-25T04:25:00.827Z,87631.00
2023-04-25T04:26:00.832Z,87633.00
2023-04-25T04:27:00.836Z,87631.00
2023-04-25T04:28:00.840Z,87631.00
2023-04-25T04:29:00.840Z,87631.00
2023-04-25T04:30:00.853Z,87627.00
2023-04-25T04:31:00.888Z,87625.00
2023-04-25T04:32:00.862Z,87627.00
2023-04-25T04:33:00.908Z,87627.00
2023-04-25T04:34:00.884Z,87625.00
2023-04-25T04:35:00.911Z,87627.00
2023-04-25T04:36:00.890Z,87627.00
2023-04-25T04:37:00.904Z,87627.00
2023-04-25T04:38:00.894Z,87625.00
2023-04-25T04:39:00.898Z,87627.00
2023-04-25T04:40:00.911Z,87627.00
2023-04-25T04:41:00.909Z,87627.00
2023-04-25T04:42:00.927Z,87625.00
2023-04-25T04:43:00.949Z,87625.00
2023-04-25T04:44:00.935Z,87623.00
2023-04-25T04:45:00.930Z,87623.00
2023-04-25T04:46:00.946Z,87625.00
2023-04-25T04:47:01.003Z,87623.00
2023-04-25T04:48:01.018Z,87625.00
2023-04-25T04:49:00.934Z,87625.00
2023-04-25T04:50:00.942Z,87625.00
2023-04-25T04:51:00.932Z,87627.00
2023-04-25T04:52:00.931Z,87627.00
2023-04-25T04:53:00.934Z,87627.00
2023-04-25T04:54:00.938Z,87629.00
2023-04-25T04:55:00.934Z,87629.00
2023-04-25T04:56:00.942Z,87623.00
2023-04-25T04:57:00.945Z,87625.00
2023-04-25T04:58:00.941Z,87623.00
2023-04-25T04:59:00.999Z,87625.00
2023-04-25T05:00:00.979Z,87625.00
2023-04-25T05:01:00.961Z,87623.00
2023-04-25T05:02:00.948Z,87621.00
2023-04-25T05:03:01.029Z,87621.00
2023-04-25T05:04:01.181Z,87623.00
2023-04-25T05:05:00.974Z,87621.00
2023-04-25T05:06:00.974Z,87619.00
2023-04-25T05:07:00.980Z,87617.00
2023-04-25T05:08:00.999Z,87617.00
2023-04-25T05:09:00.998Z,87615.00
2023-04-25T05:10:00.983Z,87615.00
2023-04-25T05:11:01.002Z,87613.00
2023-04-25T05:12:01.001Z,87615.00
2023-04-25T05:13:01.016Z,87615.00
2023-04-25T05:14:01.034Z,87615.00
2023-04-25T05:15:01.041Z,87617.00
2023-04-25T05:16:01.064Z,87615.00
2023-04-25T05:17:01.086Z,87615.00
2023-04-25T05:18:01.129Z,87613.00
2023-04-25T05:19:01.047Z,87611.00
2023-04-25T05:20:01.053Z,87613.00
2023-04-25T05:21:01.069Z,87613.00
2023-04-25T05:22:01.063Z,87615.00
2023-04-25T05:23:01.121Z,87613.00
2023-04-25T05:24:01.065Z,87617.00
2023-04-25T05:25:01.126Z,87615.00
2023-04-25T05:26:01.099Z,87617.00
2023-04-25T05:27:01.096Z,87617.00
2023-04-25T05:28:01.108Z,87619.00
2023-04-25T05:29:01.107Z,87617.00
2023-04-25T05:30:01.111Z,87615.00
2023-04-25T05:31:01.217Z,87613.00
2023-04-25T05:32:01.214Z,87615.00
2023-04-25T05:33:01.152Z,87615.00
2023-04-25T05:34:01.162Z,87611.00
2023-04-25T05:35:01.242Z,87613.00
2023-04-25T05:36:01.209Z,87617.00
2023-04-25T05:37:01.190Z,87613.00
2023-04-25T05:38:01.203Z,87611.00
2023-04-25T05:39:01.181Z,87607.00
2023-04-25T05:40:01.259Z,87605.00
2023-04-25T05:41:01.223Z,87607.00
2023-04-25T05:42:01.218Z,87605.00
2023-04-25T05:43:01.225Z,87607.00
2023-04-25T05:44:01.226Z,87607.00
2023-04-25T05:45:01.203Z,87605.00
2023-04-25T05:46:01.289Z,87601.00
2023-04-25T05:47:01.216Z,87601.00
2023-04-25T05:48:01.405Z,87601.00
2023-04-25T05:49:01.249Z,87600.00
2023-04-25T05:50:01.305Z,87603.00
2023-04-25T05:51:02.302Z,87601.00
2023-04-25T05:52:01.451Z,87605.00
2023-04-25T05:53:01.425Z,87605.00
2023-04-25T05:54:01.378Z,87605.00
2023-04-25T05:55:01.376Z,87605.00
2023-04-25T05:56:01.395Z,87601.00
2023-04-25T05:57:01.423Z,87603.00
2023-04-25T05:58:01.572Z,87607.00
2023-04-25T05:59:01.434Z,87605.00
2023-04-25T06:00:01.489Z,87609.00
2023-04-25T06:01:01.452Z,87609.00
2023-04-25T06:02:01.534Z,87613.00
2023-04-25T06:03:01.779Z,87611.00
2023-04-25T06:04:01.739Z,87611.00
2023-04-25T06:05:01.798Z,87609.00
2023-04-25T06:06:01.570Z,87609.00
2023-04-25T06:07:01.539Z,87609.00
2023-04-25T06:08:01.566Z,87609.00
2023-04-25T06:09:01.617Z,87607.00
2023-04-25T06:10:01.620Z,87603.00
2023-04-25T06:11:01.668Z,87603.00
2023-04-25T06:12:01.704Z,87601.00
2023-04-25T06:13:01.781Z,87605.00
2023-04-25T06:14:01.916Z,87601.00
2023-04-25T06:15:02.143Z,87600.00
2023-04-25T06:16:01.985Z,87600.00
2023-04-25T06:17:02.272Z,87598.00
2023-04-25T06:18:01.841Z,87594.00
2023-04-25T06:19:01.818Z,87592.00
2023-04-25T06:20:01.816Z,87590.00
2023-04-25T06:21:01.809Z,87588.00
2023-04-25T06:22:01.853Z,87580.00
2023-04-25T06:23:01.858Z,87578.00
2023-04-25T06:24:01.845Z,87574.00
2023-04-25T06:25:01.914Z,87572.00
2023-04-25T06:26:01.830Z,87566.00
2023-04-25T06:27:01.918Z,87568.00
2023-04-25T06:28:01.895Z,87566.00
2023-04-25T06:29:01.791Z,87566.00
2023-04-25T06:30:01.771Z,87562.00
2023-04-25T06:31:01.812Z,87560.00
2023-04-25T06:32:01.756Z,87558.00
2023-04-25T06:33:01.775Z,87556.00
2023-04-25T06:34:01.793Z,87556.00
2023-04-25T06:35:01.847Z,87554.00
2023-04-25T06:36:01.941Z,87553.00
2023-04-25T06:37:01.874Z,87551.00
2023-04-25T06:38:01.850Z,87549.00
2023-04-25T06:39:01.853Z,87553.00
2023-04-25T06:40:01.844Z,87553.00
2023-04-25T06:41:02.001Z,87549.00
2023-04-25T06:42:01.822Z,87549.00
2023-04-25T06:43:01.807Z,87547.00
2023-04-25T06:44:01.769Z,87547.00
2023-04-25T06:45:01.774Z,87553.00
2023-04-25T06:46:01.730Z,87543.00
2023-04-25T06:47:01.808Z,87541.00
2023-04-25T06:48:01.730Z,87541.00
2023-04-25T06:49:01.714Z,87541.00
2023-04-25T06:50:01.722Z,87537.00
2023-04-25T06:51:01.667Z,87545.00
2023-04-25T06:52:01.793Z,87541.00
2023-04-25T06:53:01.643Z,87539.00
2023-04-25T06:54:01.621Z,87537.00
2023-04-25T06:55:01.596Z,87535.00
2023-04-25T06:56:01.569Z,87531.00
2023-04-25T06:57:01.546Z,87531.00
2023-04-25T06:58:01.540Z,87529.00
2023-04-25T06:59:01.915Z,87531.00
2023-04-25T07:00:02.253Z,87531.00
2023-04-25T07:01:01.648Z,87529.00
2023-04-25T07:02:02.475Z,87531.00
2023-04-25T07:03:01.807Z,87531.00
2023-04-25T07:04:01.753Z,87529.00
2023-04-25T07:05:01.635Z,87527.00
2023-04-25T07:06:01.631Z,87529.00
2023-04-25T07:07:01.563Z,87531.00
2023-04-25T07:08:01.597Z,87529.00
2023-04-25T07:09:01.669Z,87529.00
2023-04-25T07:10:01.530Z,87529.00
2023-04-25T07:11:01.533Z,87529.00
2023-04-25T07:12:01.500Z,87527.00
2023-04-25T07:13:01.502Z,87527.00
2023-04-25T07:14:01.502Z,87525.00
2023-04-25T07:15:01.466Z,87525.00
2023-04-25T07:16:01.459Z,87529.00
2023-04-25T07:17:01.519Z,87529.00
2023-04-25T07:18:01.460Z,87529.00
2023-04-25T07:19:01.384Z,87531.00
2023-04-25T07:20:01.453Z,87533.00
2023-04-25T07:21:01.381Z,87533.00
2023-04-25T07:22:01.358Z,87535.00
2023-04-25T07:23:01.374Z,87535.00
2023-04-25T07:24:01.315Z,87537.00
2023-04-25T07:25:01.361Z,87537.00
2023-04-25T07:26:01.290Z,87535.00
2023-04-25T07:27:01.273Z,87531.00
2023-04-25T07:28:01.251Z,87527.00
2023-04-25T07:29:01.226Z,87523.00
2023-04-25T07:30:01.235Z,87515.00
2023-04-25T07:31:01.194Z,87517.00
2023-04-25T07:32:01.247Z,87515.00
2023-04-25T07:33:01.258Z,87511.00
2023-04-25T07:34:02.126Z,87511.00
2023-04-25T07:35:01.258Z,87513.00
2023-04-25T07:36:01.223Z,87513.00
2023-04-25T07:37:01.263Z,87517.00
2023-04-25T07:38:01.266Z,87521.00
2023-04-25T07:39:01.257Z,87519.00
2023-04-25T07:40:01.325Z,87511.00
2023-04-25T07:41:01.318Z,87515.00
2023-04-25T07:42:01.362Z,87519.00
2023-04-25T07:43:01.310Z,87515.00
2023-04-25T07:44:01.310Z,87515.00
2023-04-25T07:45:01.311Z,87517.00
2023-04-25T07:46:01.386Z,87519.00
2023-04-25T07:47:03.168Z,87513.00
2023-04-25T07:48:01.434Z,87517.00
2023-04-25T07:49:01.339Z,87523.00
2023-04-25T07:50:01.325Z,87519.00
2023-04-25T07:51:01.322Z,87527.00
2023-04-25T07:52:01.303Z,87529.00
2023-04-25T07:53:01.272Z,87523.00
2023-04-25T07:54:01.228Z,87527.00
2023-04-25T07:55:01.235Z,87527.00
2023-04-25T07:56:01.373Z,87523.00
2023-04-25T07:57:01.206Z,87525.00
2023-04-25T07:58:01.193Z,87529.00
2023-04-25T07:59:01.237Z,87525.00
2023-04-25T08:00:01.167Z,87529.00
2023-04-25T08:01:01.128Z,87531.00
2023-04-25T08:02:01.159Z,87531.00
2023-04-25T08:03:01.256Z,87533.00
2023-04-25T08:04:01.536Z,87537.00
2023-04-25T08:05:01.398Z,87533.00
2023-04-25T08:06:02.770Z,87531.00
2023-04-25T08:07:01.014Z,87533.00
2023-04-25T08:08:01.056Z,87531.00
2023-04-25T08:09:01.017Z,87533.00
2023-04-25T08:10:00.946Z,87533.00
2023-04-25T08:11:00.913Z,87537.00
2023-04-25T08:12:00.962Z,87533.00
2023-04-25T08:13:00.874Z,87537.00
2023-04-25T08:14:00.898Z,87541.00
2023-04-25T08:15:00.853Z,87543.00
2023-04-25T08:16:00.851Z,87543.00
2023-04-25T08:17:00.786Z,87545.00
2023-04-25T08:18:00.832Z,87549.00
2023-04-25T08:19:00.779Z,87543.00
2023-04-25T08:20:00.766Z,87541.00
2023-04-25T08:21:00.766Z,87541.00
2023-04-25T08:22:00.687Z,87543.00
2023-04-25T08:23:00.699Z,87543.00
2023-04-25T08:24:00.692Z,87541.00
2023-04-25T08:25:00.686Z,87545.00
2023-04-25T08:26:00.622Z,87543.00
2023-04-25T08:27:00.675Z,87543.00
2023-04-25T08:28:00.717Z,87543.00
2023-04-25T08:29:00.655Z,87543.00
2023-04-25T08:30:00.599Z,87541.00
2023-04-25T08:31:00.672Z,87543.00
2023-04-25T08:32:00.529Z,87543.00
2023-04-25T08:33:00.599Z,87541.00
2023-04-25T08:34:00.597Z,87535.00
2023-04-25T08:35:00.554Z,87541.00
2023-04-25T08:36:00.753Z,87537.00
2023-04-25T08:37:00.540Z,87535.00
2023-04-25T08:38:00.543Z,87539.00
2023-04-25T08:39:00.601Z,87535.00
2023-04-25T08:40:00.671Z,87535.00
2023-04-25T08:41:00.658Z,87541.00
2023-04-25T08:42:00.876Z,87537.00
2023-04-25T08:43:00.647Z,87539.00
2023-04-25T08:44:00.691Z,87539.00
2023-04-25T08:45:00.719Z,87537.00
2023-04-25T08:46:00.741Z,87539.00
2023-04-25T08:47:00.816Z,87543.00
2023-04-25T08:48:00.791Z,87543.00
2023-04-25T08:49:00.904Z,87537.00
2023-04-25T08:50:00.835Z,87541.00
2023-04-25T08:51:01.382Z,87543.00
2023-04-25T08:52:00.863Z,87549.00
2023-04-25T08:53:00.949Z,87545.00
2023-04-25T08:54:08.882Z,87545.00
2023-04-25T08:55:01.912Z,87539.00
2023-04-25T08:56:00.920Z,87545.00
2023-04-25T08:57:00.876Z,87547.00
2023-04-25T08:58:00.887Z,87543.00
2023-04-25T08:59:00.870Z,87547.00
2023-04-25T09:00:00.844Z,87547.00
2023-04-25T09:01:00.930Z,87545.00
2023-04-25T09:02:00.910Z,87543.00
2023-04-25T09:03:01.046Z,87547.00
2023-04-25T09:04:00.893Z,87553.00
2023-04-25T09:05:00.788Z,87547.00
2023-04-25T09:06:00.732Z,87547.00
2023-04-25T09:07:00.752Z,87553.00
2023-04-25T09:08:00.790Z,87547.00
2023-04-25T09:09:00.852Z,87547.00
2023-04-25T09:10:00.910Z,87545.00
2023-04-25T09:11:00.882Z,87549.00
2023-04-25T09:12:00.871Z,87549.00
2023-04-25T09:13:00.919Z,87549.00
2023-04-25T09:14:00.934Z,87553.00
2023-04-25T09:15:00.973Z,87553.00
2023-04-25T09:16:01.014Z,87556.00
2023-04-25T09:17:01.119Z,87551.00
2023-04-25T09:18:00.995Z,87554.00
2023-04-25T09:19:01.020Z,87558.00
2023-04-25T09:20:01.021Z,87551.00
2023-04-25T09:21:04.217Z,87554.00
2023-04-25T09:22:02.052Z,87553.00
2023-04-25T09:23:00.986Z,87554.00
2023-04-25T09:24:00.980Z,87553.00
2023-04-25T09:25:00.963Z,87554.00
2023-04-25T09:26:00.954Z,87553.00
2023-04-25T09:27:00.956Z,87556.00
2023-04-25T09:28:00.926Z,87556.00
2023-04-25T09:29:00.898Z,87553.00
2023-04-25T09:30:00.870Z,87554.00
2023-04-25T09:31:00.934Z,87551.00
2023-04-25T09:32:01.007Z,87554.00
2023-04-25T09:33:00.858Z,87556.00
2023-04-25T09:34:01.151Z,87554.00
2023-04-25T09:35:00.799Z,87558.00
2023-04-25T09:36:00.807Z,87556.00
2023-04-25T09:37:00.769Z,87558.00
2023-04-25T09:38:00.774Z,87560.00
2023-04-25T09:39:00.773Z,87562.00
2023-04-25T09:40:00.747Z,87562.00
2023-04-25T09:41:00.723Z,87562.00
2023-04-25T09:42:00.834Z,87558.00
2023-04-25T09:43:00.710Z,87564.00
2023-04-25T09:44:01.263Z,87564.00
2023-04-25T09:45:00.647Z,87564.00
2023-04-25T09:46:00.715Z,87570.00
2023-04-25T09:47:00.706Z,87566.00
2023-04-25T09:48:00.720Z,87560.00
2023-04-25T09:49:00.643Z,87562.00
2023-04-25T09:50:00.639Z,87558.00
2023-04-25T09:51:00.729Z,87560.00
2023-04-25T09:52:00.648Z,87562.00
2023-04-25T09:53:00.589Z,87562.00
2023-04-25T09:54:01.476Z,87560.00
2023-04-25T09:55:01.421Z,87560.00
2023-04-25T09:56:00.958Z,87560.00
2023-04-25T09:57:00.539Z,87558.00
2023-04-25T09:58:00.674Z,87558.00
2023-04-25T09:59:01.069Z,87556.00
2023-04-25T10:00:08.653Z,87558.00
2023-04-25T10:01:01.238Z,87558.00
2023-04-25T10:02:00.521Z,87553.00
2023-04-25T10:03:00.589Z,87553.00
2023-04-25T10:04:01.767Z,87549.00
2023-04-25T10:05:00.620Z,87547.00
2023-04-25T10:06:00.492Z,87543.00
2023-04-25T10:07:01.310Z,87545.00
2023-04-25T10:08:00.733Z,87543.00
2023-04-25T10:09:01.803Z,87541.00
2023-04-25T10:10:00.489Z,87543.00
2023-04-25T10:11:00.450Z,87537.00
2023-04-25T10:12:00.490Z,87537.00
2023-04-25T10:13:00.420Z,87535.00
2023-04-25T10:14:00.420Z,87537.00
2023-04-25T10:15:00.439Z,87533.00
2023-04-25T10:16:00.435Z,87541.00
2023-04-25T10:17:00.448Z,87539.00
2023-04-25T10:18:00.464Z,87537.00
2023-04-25T10:19:00.399Z,87537.00
2023-04-25T10:20:00.368Z,87545.00
2023-04-25T10:21:00.315Z,87543.00
2023-04-25T10:22:00.350Z,87541.00
2023-04-25T10:23:00.359Z,87539.00
2023-04-25T10:24:00.267Z,87541.00
2023-04-25T10:25:00.268Z,87545.00
2023-04-25T10:26:00.235Z,87541.00
2023-04-25T10:27:00.236Z,87547.00
2023-04-25T10:28:00.242Z,87547.00
2023-04-25T10:29:00.172Z,87549.00
2023-04-25T10:30:00.176Z,87549.00
2023-04-25T10:31:00.317Z,87547.00
2023-04-25T10:32:00.280Z,87553.00
2023-04-25T10:33:00.119Z,87551.00
2023-04-25T10:34:00.081Z,87554.00
2023-04-25T10:35:00.048Z,87553.00
2023-04-25T10:36:00.012Z,87562.00
2023-04-25T10:36:59.991Z,87558.00
2023-04-25T10:37:59.974Z,87558.00
2023-04-25T10:38:59.944Z,87558.00
2023-04-25T10:39:59.933Z,87558.00
2023-04-25T10:40:59.969Z,87554.00
2023-04-25T10:41:59.878Z,87560.00
2023-04-25T10:42:59.849Z,87554.00
2023-04-25T10:43:59.832Z,87556.00
2023-04-25T10:44:59.849Z,87556.00
2023-04-25T10:45:59.822Z,87564.00
2023-04-25T10:46:59.790Z,87560.00
2023-04-25T10:47:59.810Z,87560.00
2023-04-25T10:48:59.761Z,87560.00
2023-04-25T10:49:59.760Z,87566.00
2023-04-25T10:51:00.406Z,87568.00
2023-04-25T10:51:59.707Z,87570.00
2023-04-25T10:52:59.693Z,87572.00
2023-04-25T10:53:59.766Z,87568.00
2023-04-25T10:54:59.657Z,87568.00
2023-04-25T10:55:59.639Z,87572.00
2023-04-25T10:56:59.629Z,87570.00
2023-04-25T10:57:59.720Z,87570.00
2023-04-25T10:58:59.842Z,87572.00
2023-04-25T10:59:59.639Z,87570.00
2023-04-25T11:00:59.615Z,87568.00
2023-04-25T11:01:59.752Z,87568.00
2023-04-25T11:02:59.665Z,87562.00
2023-04-25T11:04:00.108Z,87564.00
2023-04-25T11:04:59.509Z,87570.00
2023-04-25T11:05:59.472Z,87568.00
2023-04-25T11:07:05.925Z,87564.00
2023-04-25T11:09:00.425Z,87562.00
2023-04-25T11:09:59.485Z,87558.00
2023-04-25T11:10:59.406Z,87560.00
2023-04-25T11:11:59.365Z,87558.00
2023-04-25T11:12:59.329Z,87556.00
2023-04-25T11:13:59.320Z,87551.00
2023-04-25T11:14:59.310Z,87549.00
2023-04-25T11:16:07.400Z,87545.00
2023-04-25T11:17:01.041Z,87547.00
2023-04-25T11:17:59.315Z,87543.00
2023-04-25T11:18:59.218Z,87539.00
2023-04-25T11:19:59.240Z,87537.00
2023-04-25T11:20:59.187Z,87535.00
2023-04-25T11:21:59.256Z,87533.00
2023-04-25T11:22:59.159Z,87537.00
2023-04-25T11:23:59.124Z,87527.00
2023-04-25T11:24:59.134Z,87521.00
2023-04-25T11:25:59.126Z,87517.00
2023-04-25T11:26:59.108Z,87519.00
2023-04-25T11:27:59.158Z,87515.00
2023-04-25T11:28:59.147Z,87517.00
2023-04-25T11:29:59.035Z,87511.00
2023-04-25T11:30:58.972Z,87521.00
2023-04-25T11:31:59.174Z,87523.00
2023-04-25T11:32:58.953Z,87527.00
2023-04-25T11:33:58.909Z,87523.00
2023-04-25T11:34:58.966Z,87513.00
2023-04-25T11:35:58.909Z,87507.00
2023-04-25T11:36:58.895Z,87509.00
2023-04-25T11:37:58.862Z,87511.00
2023-04-25T11:38:58.835Z,87507.00
2023-04-25T11:39:58.820Z,87515.00
2023-04-25T11:40:58.816Z,87515.00
2023-04-25T11:41:58.880Z,87515.00
2023-04-25T11:42:58.849Z,87509.00
2023-04-25T11:43:58.922Z,87517.00
2023-04-25T11:44:58.884Z,87517.00
2023-04-25T11:45:58.865Z,87523.00